Caloundra, Australia
Current Conditions -  °F | °C
As of 5:00 PM on Monday 24 Nov 2014 (Local Time) from YBBN Reporting Station
Scattered Clouds Scattered Clouds  
Wind Chill: 79°   Ceiling: Unl
Heat Index: 81°   Visibility: 6mi
Dew Point: 70°   Wind: 22mph
Humidity: 74%   Direction: 10°N
Pressure: 29.88"   Gusts: NA
Location:  26.8°S, 153.13°E
Report Text: YBBN 240700Z 01019KT 9999 FEW016 SCT260 26/21 Q1012 NOSIG
Loading
Personal Weather Stations






























Interactive Weather Map New forecast layout! Learn more

10-Day Weather Forecast

Advertisements
Track Severe Weather on mobile